Portada
METAR-TAF:

METAR-TAF

Aeropuertos :

Teherán, Irán

Aeropuerto Internacional de Mehrabad

latitud: 35-41N, longitud: 051-21E, altitud: 1204 m

Observación

El informe se hizo hace 38 minutos, a las 22:00 UTC
Viento 6 kt del norte
Temperatura 27°C
Humedad 23%
Presión 1010 hPa
Visibilidad 10 km o más
sin nubes por debajo de 1500 m y sin presencia de cumulonimbus.

METAR: OIII 242200Z 36006KT CAVOK 27/04 Q1010 A2983 NOSIG

Hora: 03:08 (22:38 UTC)

Pronóstico

El informe se hizo hace 5 horas y 8 minutos, a las 17:30 UTC
Pronóstico válido del 24 a las 18 UTC al 25 a las 24 UTC
Viento 10 kt del noreste
Visibilidad 10 km o más
sin nubes por debajo de 1500 m y sin presencia de cumulonimbus.
Temporalmente
del 25 a las 10 UTC al 25 a las 18 UTC
Viento 14 kt del sureste con ráfagas de 25 kt

TAF: OIII 241730Z 2418/2524 04005MPS CAVOK TEMPO 2510/2518 14007G13MPS

Observaciones y pronósticos meteorológicos de más de 4000 aeropuertos (mensajes METAR y TAF).

Los puntos amarillos y rojos representan las estaciones disponibles.

Ponga el ratón en el punto deseado para ver el nombre de la estación.

Haga clic para ver las observaciones y los pronósticos meteorológicos.

Para cambiar el mapa : haga clic en los botones verdes con una cruz de color negro para hacer un zoom, en el botón verde con un guión para alejar o en las flechas verdes para mapas adyacentes.


METAR-TAF: